sensor_id;sensor_type;location;lat;lon;timestamp;pressure;altitude;pressure_sealevel;temperature;humidity
17060;BME280;8646;49.716;9.266;2023-07-13T00:02:06;100119.66;;;22.42;44.89
17060;BME280;8646;49.716;9.266;2023-07-13T00:05:09;100098.19;;;22.36;45.18
17060;BME280;8646;49.716;9.266;2023-07-13T00:08:12;100113.13;;;22.33;45.18
17060;BME280;8646;49.716;9.266;2023-07-13T00:11:16;100117.06;;;22.21;45.41
17060;BME280;8646;49.716;9.266;2023-07-13T00:14:19;100113.28;;;22.13;45.70
17060;BME280;8646;49.716;9.266;2023-07-13T00:17:23;100117.31;;;21.99;46.18
17060;BME280;8646;49.716;9.266;2023-07-13T00:20:26;100121.97;;;22.08;45.86
17060;BME280;8646;49.716;9.266;2023-07-13T00:23:29;100122.84;;;22.08;46.49
17060;BME280;8646;49.716;9.266;2023-07-13T00:26:32;100120.06;;;21.99;47.45
17060;BME280;8646;49.716;9.266;2023-07-13T00:29:35;100130.31;;;21.78;48.43
17060;BME280;8646;49.716;9.266;2023-07-13T00:32:39;100131.56;;;21.54;48.40
17060;BME280;8646;49.716;9.266;2023-07-13T00:35:42;100130.47;;;21.36;48.98
17060;BME280;8646;49.716;9.266;2023-07-13T00:38:47;100128.84;;;21.24;48.59
17060;BME280;8646;49.716;9.266;2023-07-13T00:41:50;100121.00;;;20.99;48.77
17060;BME280;8646;49.716;9.266;2023-07-13T00:48:34;100121.50;;;20.92;48.33
17060;BME280;8646;49.716;9.266;2023-07-13T00:51:43;100123.50;;;20.81;48.21
17060;BME280;8646;49.716;9.266;2023-07-13T00:54:47;100132.81;;;20.89;48.46
17060;BME280;8646;49.716;9.266;2023-07-13T00:57:50;100122.63;;;20.80;47.91
17060;BME280;8646;49.716;9.266;2023-07-13T01:00:55;100135.03;;;20.75;47.93
17060;BME280;8646;49.716;9.266;2023-07-13T01:04:00;100126.13;;;20.82;47.91
17060;BME280;8646;49.716;9.266;2023-07-13T01:07:04;100120.59;;;20.82;48.09
17060;BME280;8646;49.716;9.266;2023-07-13T01:10:08;100128.78;;;20.73;47.87
17060;BME280;8646;49.716;9.266;2023-07-13T01:13:11;100142.06;;;20.68;48.31
17060;BME280;8646;49.716;9.266;2023-07-13T01:16:24;100146.84;;;20.66;48.81
17060;BME280;8646;49.716;9.266;2023-07-13T01:19:39;100146.34;;;20.61;49.24
17060;BME280;8646;49.716;9.266;2023-07-13T01:22:43;100139.50;;;20.55;48.94
17060;BME280;8646;49.716;9.266;2023-07-13T01:25:46;100140.19;;;20.47;49.54
17060;BME280;8646;49.716;9.266;2023-07-13T01:28:49;100153.59;;;20.41;49.80
17060;BME280;8646;49.716;9.266;2023-07-13T01:31:52;100153.09;;;20.36;50.30
17060;BME280;8646;49.716;9.266;2023-07-13T01:34:54;100152.59;;;20.31;50.23
17060;BME280;8646;49.716;9.266;2023-07-13T01:37:59;100153.00;;;20.26;50.48
17060;BME280;8646;49.716;9.266;2023-07-13T01:41:03;100154.91;;;20.14;51.44
17060;BME280;8646;49.716;9.266;2023-07-13T01:44:06;100174.38;;;20.11;51.67
17060;BME280;8646;49.716;9.266;2023-07-13T01:47:09;100166.78;;;20.04;51.79
17060;BME280;8646;49.716;9.266;2023-07-13T01:50:12;100170.19;;;19.96;51.72
17060;BME280;8646;49.716;9.266;2023-07-13T01:53:16;100178.94;;;19.90;52.04
17060;BME280;8646;49.716;9.266;2023-07-13T01:56:19;100175.72;;;19.85;52.69
17060;BME280;8646;49.716;9.266;2023-07-13T01:59:22;100178.72;;;19.82;52.06
17060;BME280;8646;49.716;9.266;2023-07-13T02:02:25;100180.09;;;19.76;52.78
17060;BME280;8646;49.716;9.266;2023-07-13T02:05:28;100181.22;;;19.74;51.99
17060;BME280;8646;49.716;9.266;2023-07-13T02:08:32;100185.22;;;19.70;52.40
17060;BME280;8646;49.716;9.266;2023-07-13T02:11:35;100181.38;;;19.61;52.74
17060;BME280;8646;49.716;9.266;2023-07-13T02:14:38;100191.84;;;19.56;53.76
17060;BME280;8646;49.716;9.266;2023-07-13T02:17:43;100194.69;;;19.55;52.74
17060;BME280;8646;49.716;9.266;2023-07-13T02:20:45;100189.72;;;19.49;53.19
17060;BME280;8646;49.716;9.266;2023-07-13T02:23:50;100200.94;;;19.46;52.86
17060;BME280;8646;49.716;9.266;2023-07-13T02:26:53;100202.41;;;19.38;53.67
17060;BME280;8646;49.716;9.266;2023-07-13T02:29:56;100211.41;;;19.29;54.45
17060;BME280;8646;49.716;9.266;2023-07-13T02:32:59;100204.41;;;19.25;54.70
17060;BME280;8646;49.716;9.266;2023-07-13T02:36:02;100218.63;;;19.19;55.08
17060;BME280;8646;49.716;9.266;2023-07-13T02:39:12;100218.84;;;19.16;55.05
17060;BME280;8646;49.716;9.266;2023-07-13T02:42:14;100224.59;;;19.13;55.20
17060;BME280;8646;49.716;9.266;2023-07-13T02:45:17;100214.09;;;19.07;55.28
17060;BME280;8646;49.716;9.266;2023-07-13T02:48:20;100218.22;;;19.01;55.46
17060;BME280;8646;49.716;9.266;2023-07-13T02:51:23;100215.84;;;18.97;55.26
17060;BME280;8646;49.716;9.266;2023-07-13T02:54:27;100209.84;;;18.92;55.12
17060;BME280;8646;49.716;9.266;2023-07-13T02:57:30;100216.69;;;18.86;56.18
17060;BME280;8646;49.716;9.266;2023-07-13T03:00:34;100224.50;;;18.80;56.15
17060;BME280;8646;49.716;9.266;2023-07-13T03:03:42;100223.47;;;18.70;58.01
17060;BME280;8646;49.716;9.266;2023-07-13T03:06:46;100223.44;;;18.58;57.31
17060;BME280;8646;49.716;9.266;2023-07-13T03:09:54;100227.38;;;18.54;56.52
17060;BME280;8646;49.716;9.266;2023-07-13T03:12:57;100231.22;;;18.52;57.24
17060;BME280;8646;49.716;9.266;2023-07-13T03:16:01;100231.81;;;18.44;57.07
17060;BME280;8646;49.716;9.266;2023-07-13T03:19:03;100238.66;;;18.39;58.22
17060;BME280;8646;49.716;9.266;2023-07-13T03:22:06;100241.50;;;18.37;57.97
17060;BME280;8646;49.716;9.266;2023-07-13T03:25:11;100241.50;;;18.37;57.25
17060;BME280;8646;49.716;9.266;2023-07-13T03:28:14;100240.63;;;18.37;57.47
17060;BME280;8646;49.716;9.266;2023-07-13T03:31:19;100246.22;;;18.35;58.49
17060;BME280;8646;49.716;9.266;2023-07-13T03:34:22;100253.66;;;18.33;58.67
17060;BME280;8646;49.716;9.266;2023-07-13T03:37:25;100265.09;;;18.27;58.79
17060;BME280;8646;49.716;9.266;2023-07-13T03:40:30;100258.84;;;18.25;58.61
17060;BME280;8646;49.716;9.266;2023-07-13T03:43:33;100268.69;;;18.27;58.17
17060;BME280;8646;49.716;9.266;2023-07-13T03:46:35;100271.34;;;18.29;59.06
17060;BME280;8646;49.716;9.266;2023-07-13T03:49:38;100275.06;;;18.28;58.10
17060;BME280;8646;49.716;9.266;2023-07-13T03:52:41;100257.34;;;18.21;58.39
17060;BME280;8646;49.716;9.266;2023-07-13T03:55:45;100271.97;;;18.33;58.24
17060;BME280;8646;49.716;9.266;2023-07-13T03:58:49;100272.63;;;18.36;57.51
17060;BME280;8646;49.716;9.266;2023-07-13T04:01:55;100274.25;;;18.39;58.23
17060;BME280;8646;49.716;9.266;2023-07-13T04:04:58;100274.78;;;18.44;57.47
17060;BME280;8646;49.716;9.266;2023-07-13T04:08:01;100276.81;;;18.53;57.68
17060;BME280;8646;49.716;9.266;2023-07-13T04:11:05;100284.06;;;18.54;58.04
17060;BME280;8646;49.716;9.266;2023-07-13T04:14:08;100268.38;;;18.56;57.97
17060;BME280;8646;49.716;9.266;2023-07-13T04:17:11;100263.13;;;18.53;57.69
17060;BME280;8646;49.716;9.266;2023-07-13T04:20:14;100273.28;;;18.63;57.74
17060;BME280;8646;49.716;9.266;2023-07-13T04:23:17;100271.53;;;18.62;57.80
17060;BME280;8646;49.716;9.266;2023-07-13T04:26:21;100273.28;;;18.63;57.61
17060;BME280;8646;49.716;9.266;2023-07-13T04:29:25;100281.53;;;18.63;57.85
17060;BME280;8646;49.716;9.266;2023-07-13T04:32:27;100284.75;;;18.68;57.78
17060;BME280;8646;49.716;9.266;2023-07-13T04:35:30;100283.28;;;18.64;58.10
17060;BME280;8646;49.716;9.266;2023-07-13T04:38:33;100285.00;;;18.65;57.91
17060;BME280;8646;49.716;9.266;2023-07-13T04:41:37;100295.94;;;18.65;57.70
17060;BME280;8646;49.716;9.266;2023-07-13T04:44:40;100294.75;;;18.70;57.86
17060;BME280;8646;49.716;9.266;2023-07-13T04:47:43;100294.38;;;18.74;57.75
17060;BME280;8646;49.716;9.266;2023-07-13T04:50:47;100294.44;;;18.85;57.35
17060;BME280;8646;49.716;9.266;2023-07-13T04:53:50;100308.31;;;18.95;56.97
17060;BME280;8646;49.716;9.266;2023-07-13T04:57:04;100295.38;;;19.08;57.28
17060;BME280;8646;49.716;9.266;2023-07-13T05:00:17;100300.91;;;19.19;59.20
17060;BME280;8646;49.716;9.266;2023-07-13T05:03:21;100289.78;;;19.89;57.62
17060;BME280;8646;49.716;9.266;2023-07-13T05:06:24;100284.13;;;20.78;57.11
17060;BME280;8646;49.716;9.266;2023-07-13T05:09:27;100281.53;;;21.81;53.58
17060;BME280;8646;49.716;9.266;2023-07-13T05:12:31;100272.06;;;23.11;50.27
17060;BME280;8646;49.716;9.266;2023-07-13T05:15:33;100270.09;;;24.07;48.40
17060;BME280;8646;49.716;9.266;2023-07-13T05:18:36;100261.06;;;24.59;47.37
17060;BME280;8646;49.716;9.266;2023-07-13T05:21:43;100260.59;;;24.82;46.72
17060;BME280;8646;49.716;9.266;2023-07-13T05:24:46;100268.28;;;25.23;45.70
17060;BME280;8646;49.716;9.266;2023-07-13T05:27:50;100268.28;;;25.23;45.66
17060;BME280;8646;49.716;9.266;2023-07-13T05:30:53;100278.41;;;25.15;45.86
17060;BME280;8646;49.716;9.266;2023-07-13T05:33:56;100273.88;;;25.31;45.41
17060;BME280;8646;49.716;9.266;2023-07-13T05:36:59;100277.47;;;25.50;45.05
17060;BME280;8646;49.716;9.266;2023-07-13T05:40:02;100274.06;;;25.56;44.77
17060;BME280;8646;49.716;9.266;2023-07-13T05:43:06;100281.22;;;25.84;44.39
17060;BME280;8646;49.716;9.266;2023-07-13T05:46:09;100280.47;;;26.42;43.64
17060;BME280;8646;49.716;9.266;2023-07-13T05:49:12;100275.94;;;26.91;42.64
17060;BME280;8646;49.716;9.266;2023-07-13T05:52:14;100274.03;;;27.48;41.67
17060;BME280;8646;49.716;9.266;2023-07-13T05:55:17;100264.00;;;28.10;40.79
17060;BME280;8646;49.716;9.266;2023-07-13T05:58:21;100263.69;;;28.53;40.21
17060;BME280;8646;49.716;9.266;2023-07-13T06:01:24;100267.00;;;28.79;39.32
17060;BME280;8646;49.716;9.266;2023-07-13T06:04:27;100271.97;;;29.14;39.17
17060;BME280;8646;49.716;9.266;2023-07-13T06:07:30;100269.22;;;29.52;38.20
17060;BME280;8646;49.716;9.266;2023-07-13T06:10:33;100266.28;;;29.68;37.80
17060;BME280;8646;49.716;9.266;2023-07-13T06:13:37;100269.72;;;29.55;37.26
17060;BME280;8646;49.716;9.266;2023-07-13T06:16:40;100276.69;;;29.74;37.32
17060;BME280;8646;49.716;9.266;2023-07-13T06:19:43;100267.47;;;29.88;37.02
17060;BME280;8646;49.716;9.266;2023-07-13T06:22:46;100263.47;;;30.06;34.67
17060;BME280;8646;49.716;9.266;2023-07-13T06:25:49;100265.28;;;30.13;36.08
17060;BME280;8646;49.716;9.266;2023-07-13T06:28:53;100269.31;;;30.55;35.19
17060;BME280;8646;49.716;9.266;2023-07-13T06:31:56;100261.69;;;30.63;34.99
17060;BME280;8646;49.716;9.266;2023-07-13T06:34:59;100263.28;;;31.08;34.08
17060;BME280;8646;49.716;9.266;2023-07-13T06:38:03;100258.97;;;31.27;34.04
17060;BME280;8646;49.716;9.266;2023-07-13T06:41:07;100256.50;;;30.96;34.08
17060;BME280;8646;49.716;9.266;2023-07-13T06:44:12;100253.81;;;30.52;33.67
17060;BME280;8646;49.716;9.266;2023-07-13T06:47:20;100270.94;;;29.90;34.16
17060;BME280;8646;49.716;9.266;2023-07-13T06:50:23;100274.66;;;29.68;34.27
17060;BME280;8646;49.716;9.266;2023-07-13T06:53:26;100278.53;;;29.67;33.90
17060;BME280;8646;49.716;9.266;2023-07-13T06:56:29;100273.00;;;30.11;33.65
17060;BME280;8646;49.716;9.266;2023-07-13T06:59:33;100275.09;;;30.53;33.23
17060;BME280;8646;49.716;9.266;2023-07-13T07:02:36;100285.69;;;30.94;31.91
17060;BME280;8646;49.716;9.266;2023-07-13T07:05:39;100282.09;;;31.00;31.34
17060;BME280;8646;49.716;9.266;2023-07-13T07:08:42;100285.28;;;30.97;31.47
17060;BME280;8646;49.716;9.266;2023-07-13T07:11:46;100281.19;;;30.78;31.04
17060;BME280;8646;49.716;9.266;2023-07-13T07:15:05;100286.91;;;31.27;30.26
17060;BME280;8646;49.716;9.266;2023-07-13T07:18:08;100286.38;;;30.16;28.98
17060;BME280;8646;49.716;9.266;2023-07-13T07:21:12;100295.91;;;30.07;29.17
17060;BME280;8646;49.716;9.266;2023-07-13T07:24:14;100291.13;;;29.92;28.86
17060;BME280;8646;49.716;9.266;2023-07-13T07:27:17;100284.75;;;30.07;28.89
17060;BME280;8646;49.716;9.266;2023-07-13T07:30:24;100293.22;;;29.76;28.85
17060;BME280;8646;49.716;9.266;2023-07-13T07:33:30;100285.72;;;29.76;28.81
17060;BME280;8646;49.716;9.266;2023-07-13T07:36:32;100287.53;;;29.84;28.73
17060;BME280;8646;49.716;9.266;2023-07-13T07:39:38;100288.41;;;29.84;28.69
17060;BME280;8646;49.716;9.266;2023-07-13T07:42:46;100286.47;;;29.70;28.08
17060;BME280;8646;49.716;9.266;2023-07-13T07:45:50;100290.50;;;30.05;28.99
17060;BME280;8646;49.716;9.266;2023-07-13T07:48:55;100292.97;;;30.00;28.46
17060;BME280;8646;49.716;9.266;2023-07-13T07:52:00;100280.69;;;30.39;28.11
17060;BME280;8646;49.716;9.266;2023-07-13T07:55:03;100280.94;;;30.58;28.51
17060;BME280;8646;49.716;9.266;2023-07-13T07:58:09;100294.06;;;29.76;28.03
17060;BME280;8646;49.716;9.266;2023-07-13T08:01:34;100294.16;;;29.68;28.73
17060;BME280;8646;49.716;9.266;2023-07-13T08:04:39;100289.78;;;29.88;28.71
17060;BME280;8646;49.716;9.266;2023-07-13T08:08:02;100298.69;;;30.07;28.74
17060;BME280;8646;49.716;9.266;2023-07-13T08:11:07;100302.28;;;29.40;28.56
17060;BME280;8646;49.716;9.266;2023-07-13T08:14:13;100309.00;;;29.23;28.81
17060;BME280;8646;49.716;9.266;2023-07-13T08:17:19;100297.44;;;28.50;29.11
17060;BME280;8646;49.716;9.266;2023-07-13T08:20:22;100309.38;;;28.11;29.88
17060;BME280;8646;49.716;9.266;2023-07-13T08:23:25;100302.50;;;27.42;31.01
17060;BME280;8646;49.716;9.266;2023-07-13T08:26:28;100308.75;;;27.04;31.80
17060;BME280;8646;49.716;9.266;2023-07-13T08:29:31;100309.38;;;26.81;32.64
17060;BME280;8646;49.716;9.266;2023-07-13T08:32:36;100302.88;;;26.48;32.65
17060;BME280;8646;49.716;9.266;2023-07-13T08:35:39;100305.44;;;26.42;32.40
17060;BME280;8646;49.716;9.266;2023-07-13T08:38:42;100310.41;;;26.04;33.06
17060;BME280;8646;49.716;9.266;2023-07-13T08:41:45;100311.09;;;25.98;33.22
17060;BME280;8646;49.716;9.266;2023-07-13T08:44:54;100302.66;;;26.08;33.08
17060;BME280;8646;49.716;9.266;2023-07-13T08:48:03;100306.50;;;26.15;33.32
17060;BME280;8646;49.716;9.266;2023-07-13T08:51:16;100307.72;;;26.20;32.75
17060;BME280;8646;49.716;9.266;2023-07-13T08:54:27;100325.03;;;26.14;33.04
17060;BME280;8646;49.716;9.266;2023-07-13T08:57:33;100314.09;;;26.13;32.81
17060;BME280;8646;49.716;9.266;2023-07-13T09:00:43;100310.56;;;26.29;32.79
17060;BME280;8646;49.716;9.266;2023-07-13T09:03:58;100310.25;;;26.32;33.01
17060;BME280;8646;49.716;9.266;2023-07-13T09:07:07;100315.56;;;26.59;32.21
17060;BME280;8646;49.716;9.266;2023-07-13T09:10:17;100312.47;;;26.70;31.98
17060;BME280;8646;49.716;9.266;2023-07-13T09:13:29;100314.03;;;26.65;31.97
17060;BME280;8646;49.716;9.266;2023-07-13T09:16:37;100319.38;;;26.58;32.47
17060;BME280;8646;49.716;9.266;2023-07-13T09:19:44;100326.66;;;26.59;32.34
17060;BME280;8646;49.716;9.266;2023-07-13T09:22:49;100307.47;;;26.74;32.70
17060;BME280;8646;49.716;9.266;2023-07-13T09:25:54;100308.91;;;27.02;32.31
17060;BME280;8646;49.716;9.266;2023-07-13T09:29:03;100327.19;;;27.37;31.89
17060;BME280;8646;49.716;9.266;2023-07-13T09:32:09;100316.56;;;27.24;31.44
17060;BME280;8646;49.716;9.266;2023-07-13T09:35:19;100307.56;;;27.14;31.83
17060;BME280;8646;49.716;9.266;2023-07-13T09:38:24;100314.66;;;27.25;31.66
17060;BME280;8646;49.716;9.266;2023-07-13T09:41:35;100317.97;;;27.28;31.30
17060;BME280;8646;49.716;9.266;2023-07-13T09:44:51;100317.44;;;27.33;31.61
17060;BME280;8646;49.716;9.266;2023-07-13T09:48:10;100295.22;;;27.41;31.42
17060;BME280;8646;49.716;9.266;2023-07-13T09:51:16;100294.56;;;27.55;31.09
17060;BME280;8646;49.716;9.266;2023-07-13T09:54:20;100295.03;;;27.75;31.02
17060;BME280;8646;49.716;9.266;2023-07-13T09:57:27;100298.81;;;27.98;31.06
17060;BME280;8646;49.716;9.266;2023-07-13T10:00:55;100290.25;;;28.24;31.07
17060;BME280;8646;49.716;9.266;2023-07-13T10:03:58;100287.03;;;28.43;30.76
17060;BME280;8646;49.716;9.266;2023-07-13T10:07:12;100303.03;;;28.72;30.64
17060;BME280;8646;49.716;9.266;2023-07-13T10:10:30;100301.50;;;28.70;29.52
17060;BME280;8646;49.716;9.266;2023-07-13T10:13:34;100304.88;;;28.57;29.66
17060;BME280;8646;49.716;9.266;2023-07-13T10:16:39;100287.06;;;28.35;29.28
17060;BME280;8646;49.716;9.266;2023-07-13T10:19:47;100314.16;;;28.41;29.04
17060;BME280;8646;49.716;9.266;2023-07-13T10:22:59;100308.31;;;28.28;29.27
17060;BME280;8646;49.716;9.266;2023-07-13T10:26:05;100321.72;;;28.25;29.69
17060;BME280;8646;49.716;9.266;2023-07-13T10:29:16;100324.22;;;28.51;29.17
17060;BME280;8646;49.716;9.266;2023-07-13T10:32:22;100311.03;;;28.44;29.39
17060;BME280;8646;49.716;9.266;2023-07-13T10:35:29;100312.03;;;28.52;30.01
17060;BME280;8646;49.716;9.266;2023-07-13T10:38:34;100314.78;;;28.60;29.77
17060;BME280;8646;49.716;9.266;2023-07-13T10:41:40;100303.66;;;28.60;29.88
17060;BME280;8646;49.716;9.266;2023-07-13T10:44:44;100308.59;;;28.41;30.64
17060;BME280;8646;49.716;9.266;2023-07-13T10:47:48;100309.00;;;28.69;30.51
17060;BME280;8646;49.716;9.266;2023-07-13T10:50:54;100300.25;;;29.03;29.79
17060;BME280;8646;49.716;9.266;2023-07-13T10:54:15;100310.81;;;29.16;29.85
17060;BME280;8646;49.716;9.266;2023-07-13T10:57:25;100312.44;;;29.10;28.85
17060;BME280;8646;49.716;9.266;2023-07-13T11:00:31;100299.75;;;28.77;29.40
17060;BME280;8646;49.716;9.266;2023-07-13T11:03:36;100309.16;;;28.76;29.18
17060;BME280;8646;49.716;9.266;2023-07-13T11:06:41;100303.59;;;28.68;29.02
17060;BME280;8646;49.716;9.266;2023-07-13T11:09:50;100310.09;;;28.60;29.39
17060;BME280;8646;49.716;9.266;2023-07-13T11:12:54;100318.25;;;28.62;29.53
17060;BME280;8646;49.716;9.266;2023-07-13T11:15:57;100299.38;;;28.80;28.61
17060;BME280;8646;49.716;9.266;2023-07-13T11:19:24;100305.56;;;28.59;29.03
17060;BME280;8646;49.716;9.266;2023-07-13T11:22:42;100289.44;;;28.86;28.53
17060;BME280;8646;49.716;9.266;2023-07-13T11:25:47;100287.38;;;28.79;28.85
17060;BME280;8646;49.716;9.266;2023-07-13T11:28:50;100284.34;;;28.89;28.58
17060;BME280;8646;49.716;9.266;2023-07-13T11:31:54;100295.59;;;28.65;28.80
17060;BME280;8646;49.716;9.266;2023-07-13T11:34:58;100283.47;;;28.58;28.83
17060;BME280;8646;49.716;9.266;2023-07-13T11:38:02;100278.31;;;28.46;28.74
17060;BME280;8646;49.716;9.266;2023-07-13T11:41:14;100277.63;;;28.44;28.98
17060;BME280;8646;49.716;9.266;2023-07-13T11:44:19;100280.22;;;28.85;28.84
17060;BME280;8646;49.716;9.266;2023-07-13T11:47:23;100273.91;;;29.14;29.06
17060;BME280;8646;49.716;9.266;2023-07-13T11:50:27;100278.59;;;29.13;29.03
17060;BME280;8646;49.716;9.266;2023-07-13T11:53:47;100281.72;;;29.18;28.86
17060;BME280;8646;49.716;9.266;2023-07-13T11:56:53;100281.78;;;29.10;28.60
17060;BME280;8646;49.716;9.266;2023-07-13T11:59:56;100282.19;;;29.22;27.62
17060;BME280;8646;49.716;9.266;2023-07-13T12:03:02;100274.88;;;28.98;28.42
17060;BME280;8646;49.716;9.266;2023-07-13T12:06:25;100278.25;;;29.16;28.15
17060;BME280;8646;49.716;9.266;2023-07-13T12:09:29;100276.66;;;29.59;28.38
17060;BME280;8646;49.716;9.266;2023-07-13T12:12:33;100279.44;;;29.59;27.95
17060;BME280;8646;49.716;9.266;2023-07-13T12:15:38;100279.56;;;29.66;27.82
17060;BME280;8646;49.716;9.266;2023-07-13T12:18:43;100276.41;;;29.84;27.56
17060;BME280;8646;49.716;9.266;2023-07-13T12:21:52;100265.47;;;30.26;27.04
17060;BME280;8646;49.716;9.266;2023-07-13T12:24:56;100264.19;;;30.58;27.30
17060;BME280;8646;49.716;9.266;2023-07-13T12:28:20;100271.44;;;30.38;25.79
17060;BME280;8646;49.716;9.266;2023-07-13T12:31:26;100283.31;;;29.73;26.72
17060;BME280;8646;49.716;9.266;2023-07-13T12:34:32;100278.00;;;29.49;27.14
17060;BME280;8646;49.716;9.266;2023-07-13T12:37:36;100283.94;;;29.23;27.31
17060;BME280;8646;49.716;9.266;2023-07-13T12:40:39;100274.94;;;28.90;26.96
17060;BME280;8646;49.716;9.266;2023-07-13T12:43:45;100278.13;;;28.48;27.75
17060;BME280;8646;49.716;9.266;2023-07-13T12:46:53;100279.66;;;28.59;27.32
17060;BME280;8646;49.716;9.266;2023-07-13T12:49:58;100283.69;;;28.48;26.94
17060;BME280;8646;49.716;9.266;2023-07-13T12:53:04;100272.66;;;28.63;26.46
17060;BME280;8646;49.716;9.266;2023-07-13T12:56:16;100261.53;;;29.16;26.57
17060;BME280;8646;49.716;9.266;2023-07-13T12:59:23;100271.03;;;29.45;26.01
17060;BME280;8646;49.716;9.266;2023-07-13T13:02:29;100271.03;;;29.45;26.20
17060;BME280;8646;49.716;9.266;2023-07-13T13:05:33;100269.91;;;29.54;26.23
17060;BME280;8646;49.716;9.266;2023-07-13T13:08:36;100277.44;;;29.68;26.24
17060;BME280;8646;49.716;9.266;2023-07-13T13:11:42;100283.34;;;29.88;26.21
17060;BME280;8646;49.716;9.266;2023-07-13T13:14:46;100277.06;;;29.71;26.32
17060;BME280;8646;49.716;9.266;2023-07-13T13:17:50;100283.31;;;29.36;26.64
17060;BME280;8646;49.716;9.266;2023-07-13T13:20:53;100291.41;;;29.45;26.54
17060;BME280;8646;49.716;9.266;2023-07-13T13:23:55;100287.44;;;29.77;27.00
17060;BME280;8646;49.716;9.266;2023-07-13T13:26:59;100283.69;;;30.08;26.55
17060;BME280;8646;49.716;9.266;2023-07-13T13:30:10;100270.97;;;30.20;26.36
17060;BME280;8646;49.716;9.266;2023-07-13T13:33:16;100294.44;;;30.11;26.33
17060;BME280;8646;49.716;9.266;2023-07-13T13:36:22;100288.53;;;29.91;26.16
17060;BME280;8646;49.716;9.266;2023-07-13T13:39:31;100285.16;;;29.66;26.56
17060;BME280;8646;49.716;9.266;2023-07-13T13:42:35;100275.44;;;29.77;26.30
17060;BME280;8646;49.716;9.266;2023-07-13T13:45:42;100280.81;;;29.93;26.29
17060;BME280;8646;49.716;9.266;2023-07-13T13:48:44;100290.41;;;29.99;25.92
17060;BME280;8646;49.716;9.266;2023-07-13T13:51:48;100297.88;;;29.83;25.83
17060;BME280;8646;49.716;9.266;2023-07-13T13:54:51;100302.75;;;29.67;25.17
17060;BME280;8646;49.716;9.266;2023-07-13T13:57:57;100307.25;;;29.22;26.14
17060;BME280;8646;49.716;9.266;2023-07-13T14:01:02;100305.53;;;28.67;26.68
17060;BME280;8646;49.716;9.266;2023-07-13T14:04:10;100315.72;;;28.83;27.17
17060;BME280;8646;49.716;9.266;2023-07-13T14:07:17;100306.97;;;28.94;26.63
17060;BME280;8646;49.716;9.266;2023-07-13T14:10:20;100308.81;;;29.02;27.19
17060;BME280;8646;49.716;9.266;2023-07-13T14:13:27;100311.34;;;29.11;26.98
17060;BME280;8646;49.716;9.266;2023-07-13T14:16:33;100304.38;;;29.15;26.75
17060;BME280;8646;49.716;9.266;2023-07-13T14:19:36;100294.31;;;29.06;26.61
17060;BME280;8646;49.716;9.266;2023-07-13T14:22:39;100298.16;;;29.05;26.70
17060;BME280;8646;49.716;9.266;2023-07-13T14:25:41;100305.94;;;29.18;26.92
17060;BME280;8646;49.716;9.266;2023-07-13T14:28:47;100299.41;;;29.26;27.17
17060;BME280;8646;49.716;9.266;2023-07-13T14:31:51;100302.31;;;29.32;26.92
17060;BME280;8646;49.716;9.266;2023-07-13T14:34:54;100306.66;;;29.35;26.93
17060;BME280;8646;49.716;9.266;2023-07-13T14:37:59;100302.13;;;29.34;27.33
17060;BME280;8646;49.716;9.266;2023-07-13T14:41:02;100303.50;;;29.38;27.03
17060;BME280;8646;49.716;9.266;2023-07-13T14:44:13;100300.28;;;29.49;27.19
17060;BME280;8646;49.716;9.266;2023-07-13T14:47:17;100296.66;;;29.63;26.73
17060;BME280;8646;49.716;9.266;2023-07-13T14:50:26;100292.47;;;29.44;26.67
17060;BME280;8646;49.716;9.266;2023-07-13T14:53:31;100312.38;;;29.18;27.15
17060;BME280;8646;49.716;9.266;2023-07-13T14:56:34;100310.16;;;29.29;27.41
17060;BME280;8646;49.716;9.266;2023-07-13T14:59:38;100314.25;;;29.64;26.94
17060;BME280;8646;49.716;9.266;2023-07-13T15:02:43;100304.78;;;29.87;26.20
17060;BME280;8646;49.716;9.266;2023-07-13T15:05:49;100288.59;;;29.68;26.13
17060;BME280;8646;49.716;9.266;2023-07-13T15:08:52;100298.41;;;29.64;26.29
17060;BME280;8646;49.716;9.266;2023-07-13T15:11:56;100317.47;;;29.30;26.94
17060;BME280;8646;49.716;9.266;2023-07-13T15:14:59;100313.53;;;29.01;27.13
17060;BME280;8646;49.716;9.266;2023-07-13T15:18:04;100311.22;;;28.82;27.93
17060;BME280;8646;49.716;9.266;2023-07-13T15:21:08;100306.28;;;28.92;27.94
17060;BME280;8646;49.716;9.266;2023-07-13T15:24:15;100304.72;;;29.12;27.70
17060;BME280;8646;49.716;9.266;2023-07-13T15:27:18;100307.38;;;29.29;27.72
17060;BME280;8646;49.716;9.266;2023-07-13T15:30:22;100294.03;;;29.47;27.41
17060;BME280;8646;49.716;9.266;2023-07-13T15:33:27;100308.34;;;29.44;27.53
17060;BME280;8646;49.716;9.266;2023-07-13T15:36:31;100310.50;;;29.34;27.48
17060;BME280;8646;49.716;9.266;2023-07-13T15:39:35;100298.66;;;28.86;27.23
17060;BME280;8646;49.716;9.266;2023-07-13T15:42:39;100310.22;;;28.67;27.74
17060;BME280;8646;49.716;9.266;2023-07-13T15:45:44;100305.34;;;28.30;28.32
17060;BME280;8646;49.716;9.266;2023-07-13T15:48:49;100302.78;;;28.20;28.04
17060;BME280;8646;49.716;9.266;2023-07-13T15:51:53;100304.09;;;28.40;28.11
17060;BME280;8646;49.716;9.266;2023-07-13T15:54:58;100296.94;;;28.38;27.72
17060;BME280;8646;49.716;9.266;2023-07-13T15:58:02;100302.25;;;28.17;28.02
17060;BME280;8646;49.716;9.266;2023-07-13T16:01:08;100293.72;;;28.26;28.18
17060;BME280;8646;49.716;9.266;2023-07-13T16:04:13;100298.03;;;28.37;28.33
17060;BME280;8646;49.716;9.266;2023-07-13T16:07:17;100301.59;;;28.54;28.08
17060;BME280;8646;49.716;9.266;2023-07-13T16:10:24;100293.25;;;28.54;27.97
17060;BME280;8646;49.716;9.266;2023-07-13T16:13:29;100307.34;;;28.52;28.58
17060;BME280;8646;49.716;9.266;2023-07-13T16:16:34;100315.56;;;28.45;28.08
17060;BME280;8646;49.716;9.266;2023-07-13T16:19:38;100304.81;;;28.34;28.29
17060;BME280;8646;49.716;9.266;2023-07-13T16:22:48;100289.91;;;28.19;28.18
17060;BME280;8646;49.716;9.266;2023-07-13T16:25:53;100305.38;;;28.22;28.28